createdAt,value
2022-11-06T00:01:47.677Z,101512.84
2022-11-06T00:04:15.176Z,101504.34
2022-11-06T00:06:48.774Z,101509.53
2022-11-06T00:09:18.552Z,101505.25
2022-11-06T00:11:46.469Z,101505.19
2022-11-06T00:14:14.040Z,101512.00
2022-11-06T00:16:42.744Z,101504.34
2022-11-06T00:19:10.695Z,101501.69
2022-11-06T00:21:39.109Z,101507.00
2022-11-06T00:24:09.697Z,101511.34
2022-11-06T00:26:37.985Z,101502.72
2022-11-06T00:29:07.263Z,101507.94
2022-11-06T00:31:37.611Z,101507.94
2022-11-06T00:34:07.686Z,101502.84
2022-11-06T00:36:35.903Z,101494.25
2022-11-06T00:39:04.484Z,101497.78
2022-11-06T00:41:33.314Z,101495.19
2022-11-06T00:44:02.656Z,101502.19
2022-11-06T00:46:30.753Z,101504.69
2022-11-06T00:48:58.990Z,101505.56
2022-11-06T00:51:28.560Z,101502.97
2022-11-06T00:53:57.779Z,101492.66
2022-11-06T00:56:26.104Z,101497.91
2022-11-06T00:58:56.169Z,101500.56
2022-11-06T01:01:26.351Z,101501.44
2022-11-06T01:03:56.203Z,101504.97
2022-11-06T01:06:26.710Z,101500.66
2022-11-06T01:08:54.340Z,101498.97
2022-11-06T01:11:23.707Z,101498.97
2022-11-06T01:13:54.056Z,101500.72
2022-11-06T01:16:23.868Z,101501.72
2022-11-06T01:18:52.808Z,101507.78
2022-11-06T01:21:22.712Z,101500.06
2022-11-06T01:23:54.085Z,101499.22
2022-11-06T01:26:37.372Z,101496.63
2022-11-06T01:29:07.848Z,101498.38
2022-11-06T01:31:37.160Z,101481.13
2022-11-06T01:34:05.590Z,101481.97
2022-11-06T01:36:34.057Z,101476.88
2022-11-06T01:39:06.777Z,101482.88
2022-11-06T01:41:36.777Z,101481.97
2022-11-06T01:44:09.698Z,101476.78
2022-11-06T01:46:38.771Z,101464.84
2022-11-06T01:49:09.524Z,101469.16
2022-11-06T01:51:41.319Z,101472.75
2022-11-06T01:54:11.455Z,101464.22
2022-11-06T01:56:39.954Z,101453.91
2022-11-06T01:59:14.470Z,101463.44
2022-11-06T02:01:43.724Z,101449.66
2022-11-06T02:04:17.995Z,101442.78
2022-11-06T02:07:03.519Z,101454.09
2022-11-06T02:09:33.050Z,101446.34
2022-11-06T02:12:06.971Z,101453.25
2022-11-06T02:14:41.725Z,101446.41
2022-11-06T02:17:20.391Z,101437.81
2022-11-06T02:20:01.805Z,101440.44
2022-11-06T02:22:56.525Z,101433.50
2022-11-06T02:25:38.173Z,101429.22
2022-11-06T02:28:23.859Z,101420.66
2022-11-06T02:31:05.654Z,101418.13
2022-11-06T02:33:37.701Z,101422.47
2022-11-06T02:36:36.477Z,101422.53
2022-11-06T02:39:13.591Z,101428.59
2022-11-06T02:41:44.605Z,101421.75
2022-11-06T02:44:30.634Z,101418.38
2022-11-06T02:47:06.357Z,101426.22
2022-11-06T02:49:39.278Z,101426.16
2022-11-06T02:52:12.577Z,101428.66
2022-11-06T02:54:47.359Z,101421.75
2022-11-06T02:57:18.533Z,101421.63
2022-11-06T02:59:53.319Z,101434.66
2022-11-06T03:02:26.821Z,101425.91
2022-11-06T03:04:59.317Z,101433.69
2022-11-06T03:07:35.582Z,101426.75
2022-11-06T03:10:03.772Z,101422.41
2022-11-06T03:12:34.329Z,101411.97
2022-11-06T03:18:30.773Z,101411.06
2022-11-06T03:21:02.843Z,101405.81
2022-11-06T03:23:37.030Z,101414.44
2022-11-06T03:26:13.881Z,101413.53
2022-11-06T03:28:50.187Z,101418.72
2022-11-06T03:31:24.589Z,101418.72
2022-11-06T03:33:56.324Z,101422.13
2022-11-06T03:36:27.656Z,101421.19
2022-11-06T03:39:00.400Z,101422.13
2022-11-06T03:41:34.270Z,101424.78
2022-11-06T03:44:04.203Z,101423.19
2022-11-06T03:46:37.580Z,101413.78
2022-11-06T03:49:10.387Z,101425.00
2022-11-06T03:51:45.294Z,101421.47
2022-11-06T03:54:19.508Z,101412.81
2022-11-06T03:56:54.358Z,101417.16
2022-11-06T03:59:25.418Z,101414.63
2022-11-06T04:01:58.348Z,101412.97
2022-11-06T04:04:31.991Z,101412.25
2022-11-06T04:07:06.451Z,101414.09
2022-11-06T04:09:53.862Z,101416.72
2022-11-06T04:12:43.258Z,101409.91
2022-11-06T04:15:14.112Z,101407.50
2022-11-06T04:17:43.125Z,101403.28
2022-11-06T04:20:34.969Z,101403.28
2022-11-06T04:23:13.401Z,101391.34
2022-11-06T04:26:12.460Z,101400.09
2022-11-06T04:28:50.026Z,101397.59
2022-11-06T04:31:26.585Z,101392.41
2022-11-06T04:34:03.605Z,101397.66
2022-11-06T04:36:49.547Z,101388.19
2022-11-06T04:39:26.000Z,101384.78
2022-11-06T04:41:59.488Z,101388.34
2022-11-06T04:44:32.701Z,101392.66
2022-11-06T04:47:03.054Z,101391.06
2022-11-06T04:49:35.049Z,101393.66
2022-11-06T04:52:05.593Z,101392.88
2022-11-06T04:54:34.274Z,101394.59
2022-11-06T04:57:03.278Z,101385.97
2022-11-06T04:59:35.966Z,101379.91
2022-11-06T05:02:04.319Z,101384.22
2022-11-06T05:04:34.543Z,101386.81
2022-11-06T05:07:02.436Z,101378.16
2022-11-06T05:09:30.208Z,101384.22
2022-11-06T05:11:58.153Z,101368.88
2022-11-06T05:14:25.832Z,101370.59
2022-11-06T05:16:53.770Z,101367.22
2022-11-06T05:19:21.476Z,101366.44
2022-11-06T05:22:08.677Z,101370.78
2022-11-06T05:24:36.820Z,101366.56
2022-11-06T05:27:04.693Z,101373.50
2022-11-06T05:29:32.204Z,101369.25
2022-11-06T05:31:59.766Z,101364.97
2022-11-06T05:34:27.306Z,101363.34
2022-11-06T05:36:56.089Z,101373.78
2022-11-06T05:39:23.672Z,101374.66
2022-11-06T05:41:51.189Z,101366.91
2022-11-06T05:44:18.861Z,101368.66
2022-11-06T05:46:49.266Z,101365.22
2022-11-06T05:49:17.024Z,101371.25
2022-11-06T05:51:44.680Z,101369.53
2022-11-06T05:54:13.631Z,101366.22
2022-11-06T05:56:41.145Z,101365.34
2022-11-06T05:59:08.737Z,101377.50
2022-11-06T06:01:36.340Z,101374.06
2022-11-06T06:04:04.990Z,101375.75
2022-11-06T06:06:32.620Z,101382.63
2022-11-06T06:09:00.092Z,101379.25
2022-11-06T06:11:29.003Z,101379.28
2022-11-06T06:13:56.569Z,101368.16
2022-11-06T06:16:24.254Z,101375.94
2022-11-06T06:18:52.180Z,101369.03
2022-11-06T06:21:19.796Z,101378.63
2022-11-06T06:23:47.421Z,101383.84
2022-11-06T06:26:15.017Z,101386.44
2022-11-06T06:28:43.949Z,101391.56
2022-11-06T06:31:11.906Z,101392.34
2022-11-06T06:33:39.610Z,101390.69
2022-11-06T06:36:08.325Z,101392.41
2022-11-06T06:38:36.081Z,101393.28
2022-11-06T06:41:04.059Z,101398.47
2022-11-06T06:43:58.425Z,101397.59
2022-11-06T06:46:26.557Z,101386.44
2022-11-06T06:48:55.106Z,101402.00
2022-11-06T06:51:24.429Z,101399.41
2022-11-06T06:53:52.634Z,101396.81
2022-11-06T06:56:20.501Z,101405.47
2022-11-06T06:58:48.478Z,101398.50
2022-11-06T07:01:18.127Z,101407.13
2022-11-06T07:03:45.911Z,101407.91
2022-11-06T07:06:13.962Z,101409.66
2022-11-06T07:08:41.544Z,101402.66
2022-11-06T07:11:10.256Z,101402.63
2022-11-06T07:13:37.942Z,101405.16
2022-11-06T07:16:06.602Z,101410.34
2022-11-06T07:18:37.310Z,101415.47
2022-11-06T07:21:06.233Z,101411.97
2022-11-06T07:23:35.533Z,101416.13
2022-11-06T07:26:04.702Z,101411.72
2022-11-06T07:28:32.531Z,101407.38
2022-11-06T07:31:00.860Z,101405.56
2022-11-06T07:33:28.597Z,101405.44
2022-11-06T07:35:57.540Z,101403.63
2022-11-06T07:38:25.089Z,101399.16
2022-11-06T07:40:52.647Z,101392.13
2022-11-06T07:43:24.603Z,101400.59
2022-11-06T07:45:52.345Z,101390.16
2022-11-06T07:48:20.045Z,101390.81
2022-11-06T07:50:48.803Z,101400.19
2022-11-06T07:53:17.736Z,101400.84
2022-11-06T07:55:51.119Z,101399.84
2022-11-06T07:58:19.671Z,101392.72
2022-11-06T08:00:49.498Z,101398.63
2022-11-06T08:03:20.978Z,101391.56
2022-11-06T08:05:50.673Z,101377.66
2022-11-06T08:08:19.923Z,101386.88
2022-11-06T08:10:47.782Z,101374.59
2022-11-06T08:13:17.976Z,101385.59
2022-11-06T08:15:46.102Z,101374.13
2022-11-06T08:18:14.030Z,101380.81
2022-11-06T08:20:42.107Z,101391.91
2022-11-06T08:23:14.422Z,101383.94
2022-11-06T08:25:44.011Z,101390.56
2022-11-06T08:28:13.504Z,101377.38
2022-11-06T08:30:42.662Z,101374.53
2022-11-06T08:33:10.575Z,101382.06
2022-11-06T08:35:39.285Z,101371.50
2022-11-06T08:38:07.165Z,101382.53
2022-11-06T08:40:53.742Z,101374.53
2022-11-06T08:43:27.858Z,101376.78
2022-11-06T08:45:56.714Z,101373.94
2022-11-06T08:48:25.068Z,101380.59
2022-11-06T08:50:56.505Z,101379.50
2022-11-06T08:53:26.934Z,101366.25
2022-11-06T08:55:58.364Z,101370.38
2022-11-06T08:58:27.258Z,101358.84
2022-11-06T09:00:55.695Z,101355.16
2022-11-06T09:03:26.882Z,101348.06
2022-11-06T09:05:55.259Z,101358.25
2022-11-06T09:08:30.662Z,101352.78
2022-11-06T09:11:00.575Z,101348.22
2022-11-06T09:13:34.092Z,101336.66
2022-11-06T09:16:10.081Z,101344.13
2022-11-06T09:18:40.903Z,101350.84
2022-11-06T09:21:09.386Z,101358.28
2022-11-06T09:26:34.616Z,101349.06
2022-11-06T09:29:04.596Z,101347.06
2022-11-06T09:31:32.819Z,101347.56
2022-11-06T09:34:01.204Z,101349.88
2022-11-06T09:36:29.974Z,101358.13
2022-11-06T09:38:58.639Z,101363.13
2022-11-06T09:41:36.359Z,101353.34
2022-11-06T09:44:24.161Z,101353.91
2022-11-06T09:46:53.380Z,101346.63
2022-11-06T09:49:28.907Z,101348.00
2022-11-06T09:52:05.619Z,101346.72
2022-11-06T09:54:41.229Z,101346.91
2022-11-06T09:57:14.781Z,101354.84
2022-11-06T09:59:45.991Z,101338.59
2022-11-06T10:02:28.337Z,101349.13
2022-11-06T10:05:05.224Z,101347.25
2022-11-06T10:07:37.140Z,101347.31
2022-11-06T10:10:07.868Z,101339.47
2022-11-06T10:12:48.019Z,101340.84
2022-11-06T10:15:23.665Z,101339.09
2022-11-06T10:17:57.813Z,101326.34
2022-11-06T10:20:33.255Z,101323.88
2022-11-06T10:23:06.660Z,101323.94
2022-11-06T10:25:46.783Z,101331.09
2022-11-06T10:28:29.610Z,101328.56
2022-11-06T10:31:09.315Z,101332.47
2022-11-06T10:33:53.353Z,101326.47
2022-11-06T10:36:25.682Z,101305.66
2022-11-06T10:38:56.214Z,101319.34
2022-11-06T10:41:27.509Z,101312.13
2022-11-06T10:44:01.397Z,101293.13
2022-11-06T10:46:36.653Z,101294.97
2022-11-06T10:49:13.711Z,101294.06
2022-11-06T10:52:04.573Z,101280.91
2022-11-06T10:54:50.672Z,101280.38
2022-11-06T10:57:31.344Z,101279.41
2022-11-06T10:59:59.780Z,101278.28
2022-11-06T11:02:33.083Z,101277.16
2022-11-06T11:05:00.983Z,101274.00
2022-11-06T11:07:31.959Z,101256.44
2022-11-06T11:09:59.936Z,101271.94
2022-11-06T11:12:30.554Z,101260.19
2022-11-06T11:15:14.434Z,101266.69
2022-11-06T11:17:44.601Z,101254.38
2022-11-06T11:20:31.794Z,101255.03
2022-11-06T11:23:08.181Z,101254.72
2022-11-06T11:25:36.309Z,101249.72
2022-11-06T11:28:05.400Z,101262.13
2022-11-06T11:30:34.244Z,101259.06
2022-11-06T11:33:24.628Z,101239.19
2022-11-06T11:35:53.993Z,101243.66
2022-11-06T11:41:40.684Z,101228.88
2022-11-06T11:44:17.104Z,101236.28
2022-11-06T11:46:52.321Z,101229.63
2022-11-06T11:49:38.975Z,101226.06
2022-11-06T11:52:14.250Z,101224.94
2022-11-06T11:54:41.878Z,101223.72
2022-11-06T11:57:19.079Z,101211.19
2022-11-06T11:59:50.298Z,101218.53
2022-11-06T12:02:26.748Z,101211.19
2022-11-06T12:04:59.944Z,101215.75
2022-11-06T12:07:30.103Z,101202.66
2022-11-06T12:09:59.387Z,101205.03
2022-11-06T12:12:32.821Z,101201.53
2022-11-06T12:15:10.308Z,101192.31
2022-11-06T12:17:40.797Z,101192.28
2022-11-06T12:20:17.155Z,101196.88
2022-11-06T12:22:48.601Z,101175.13
2022-11-06T12:25:21.125Z,101183.69
2022-11-06T12:27:55.048Z,101178.03
2022-11-06T12:30:22.820Z,101174.41
2022-11-06T12:33:11.202Z,101170.66
2022-11-06T12:35:43.071Z,101169.19
2022-11-06T12:38:22.112Z,101165.09
2022-11-06T12:40:55.054Z,101164.78
2022-11-06T12:43:30.195Z,101155.97
2022-11-06T12:46:09.760Z,101156.94
2022-11-06T12:48:51.283Z,101159.84
2022-11-06T12:51:27.325Z,101157.50
2022-11-06T12:54:08.920Z,101153.94
2022-11-06T12:56:51.125Z,101160.53
2022-11-06T12:59:41.967Z,101152.34
2022-11-06T13:02:28.571Z,101156.59
2022-11-06T13:05:09.226Z,101170.06
2022-11-06T13:07:59.855Z,101153.34
2022-11-06T13:10:52.615Z,101148.03
2022-11-06T13:13:32.626Z,101142.38
2022-11-06T13:16:08.910Z,101136.84
2022-11-06T13:18:43.048Z,101133.53
2022-11-06T13:21:19.111Z,101134.97
2022-11-06T13:23:51.559Z,101133.34
2022-11-06T13:26:29.501Z,101141.91
2022-11-06T13:29:00.185Z,101128.91
2022-11-06T13:31:35.929Z,101129.50
2022-11-06T13:34:06.202Z,101124.25
2022-11-06T13:36:39.738Z,101117.59
2022-11-06T13:39:16.471Z,101101.44
2022-11-06T13:41:56.038Z,101097.22
2022-11-06T13:44:26.707Z,101095.84
2022-11-06T13:47:14.000Z,101101.69
2022-11-06T13:49:55.851Z,101094.81
2022-11-06T13:52:38.642Z,101098.28
2022-11-06T13:55:18.052Z,101091.97
2022-11-06T13:58:43.418Z,101080.34
2022-11-06T14:01:41.758Z,101080.72
2022-11-06T14:04:34.706Z,101081.16
2022-11-06T14:07:13.815Z,101067.13
2022-11-06T14:10:26.020Z,101074.06
2022-11-06T14:13:53.456Z,101076.81
2022-11-06T14:16:37.570Z,101068.47
2022-11-06T14:19:32.792Z,101077.91
2022-11-06T14:22:43.000Z,101075.63
2022-11-06T14:26:13.364Z,101070.03
2022-11-06T14:28:55.959Z,101063.91
2022-11-06T14:32:03.629Z,101062.81
2022-11-06T14:34:36.819Z,101059.81
2022-11-06T14:37:37.301Z,101058.03
2022-11-06T14:40:37.788Z,101062.84
2022-11-06T14:49:47.794Z,101053.34
2022-11-06T14:52:37.249Z,101050.22
2022-11-06T14:59:29.804Z,101037.16
2022-11-06T15:02:07.444Z,101039.41
2022-11-06T15:04:37.664Z,101024.00
2022-11-06T15:11:01.684Z,101012.41
2022-11-06T15:13:33.492Z,101012.84
2022-11-06T15:16:17.201Z,101005.47
2022-11-06T15:18:46.679Z,101018.88
2022-11-06T15:21:30.945Z,101013.16
2022-11-06T15:24:15.412Z,101009.91
2022-11-06T15:27:15.512Z,101023.22
2022-11-06T15:29:48.329Z,101019.03
2022-11-06T15:32:25.483Z,101015.91
2022-11-06T15:35:03.640Z,101006.63
2022-11-06T15:37:40.000Z,101009.56
2022-11-06T15:40:22.977Z,101017.63
2022-11-06T15:43:00.715Z,101010.81
2022-11-06T15:45:30.764Z,101018.03
2022-11-06T15:48:21.147Z,101026.22
2022-11-06T15:50:53.293Z,101012.63
2022-11-06T15:54:04.089Z,101008.75
2022-11-06T15:56:35.027Z,101010.72
2022-11-06T15:59:24.123Z,101008.53
2022-11-06T16:02:04.903Z,101004.44
2022-11-06T16:04:33.576Z,100999.66
2022-11-06T16:07:07.665Z,101000.06
2022-11-06T16:09:41.657Z,100995.16
2022-11-06T16:12:24.898Z,100992.00
2022-11-06T16:14:56.422Z,100993.91
2022-11-06T16:17:27.360Z,100988.03
2022-11-06T16:20:06.262Z,100978.72
2022-11-06T16:22:35.197Z,100972.16
2022-11-06T16:25:11.139Z,100969.84
2022-11-06T16:27:41.983Z,100964.09
2022-11-06T16:30:36.421Z,100963.88
2022-11-06T16:33:04.967Z,100955.31
2022-11-06T16:35:54.999Z,100958.31
2022-11-06T16:38:41.039Z,100957.16
2022-11-06T16:41:44.907Z,100955.78
2022-11-06T16:44:30.738Z,100948.34
2022-11-06T16:47:29.826Z,100946.88
2022-11-06T16:50:05.009Z,100955.84
2022-11-06T16:52:45.046Z,100949.06
2022-11-06T16:55:28.490Z,100944.16
2022-11-06T16:58:00.089Z,100931.38
2022-11-06T17:00:44.429Z,100931.47
2022-11-06T17:03:25.937Z,100939.63
2022-11-06T17:05:59.573Z,100939.84
2022-11-06T17:08:37.669Z,100954.03
2022-11-06T17:11:21.811Z,100955.16
2022-11-06T17:14:12.110Z,100949.31
2022-11-06T17:16:49.665Z,100942.59
2022-11-06T17:19:37.671Z,100943.75
2022-11-06T17:22:12.921Z,100953.44
2022-11-06T17:24:42.170Z,100949.16
2022-11-06T17:27:10.183Z,100958.13
2022-11-06T17:29:39.121Z,100948.72
2022-11-06T17:32:07.365Z,100961.06
2022-11-06T17:34:34.886Z,100958.56
2022-11-06T17:37:02.854Z,100950.94
2022-11-06T17:39:30.492Z,100952.81
2022-11-06T17:41:58.075Z,100941.63
2022-11-06T17:44:25.648Z,100943.50
2022-11-06T17:46:54.602Z,100936.69
2022-11-06T17:49:22.283Z,100936.88
2022-11-06T17:52:00.094Z,100937.09
2022-11-06T17:54:33.472Z,100936.44
2022-11-06T17:57:03.127Z,100935.06
2022-11-06T17:59:32.826Z,100940.56
2022-11-06T18:02:02.067Z,100937.41
2022-11-06T18:04:34.203Z,100932.47
2022-11-06T18:07:05.599Z,100935.34
2022-11-06T18:09:33.206Z,100941.91
2022-11-06T18:12:00.836Z,100937.91
2022-11-06T18:14:29.133Z,100942.56
2022-11-06T18:16:56.588Z,100943.59
2022-11-06T18:19:26.285Z,100942.84
2022-11-06T18:21:55.067Z,100931.66
2022-11-06T18:24:22.749Z,100927.47
2022-11-06T18:26:50.268Z,100943.41
2022-11-06T18:29:18.181Z,100934.28
2022-11-06T18:31:45.708Z,100941.38
2022-11-06T18:34:19.857Z,100945.91
2022-11-06T18:36:50.049Z,100939.94
2022-11-06T18:39:17.993Z,100940.22
2022-11-06T18:41:45.511Z,100936.88
2022-11-06T18:44:13.100Z,100926.72
2022-11-06T18:46:40.569Z,100915.66
2022-11-06T18:49:10.579Z,100910.69
2022-11-06T18:51:39.728Z,100902.16
2022-11-06T18:54:14.116Z,100916.19
2022-11-06T18:56:41.998Z,100903.28
2022-11-06T18:59:17.693Z,100912.19
2022-11-06T19:01:45.606Z,100909.66
2022-11-06T19:04:13.993Z,100913.19
2022-11-06T19:06:42.874Z,100914.97
2022-11-06T19:09:12.050Z,100910.03
2022-11-06T19:11:49.749Z,100918.97
2022-11-06T19:14:17.522Z,100907.88
2022-11-06T19:16:46.786Z,100913.19
2022-11-06T19:19:25.167Z,100915.22
2022-11-06T19:21:53.928Z,100916.31
2022-11-06T19:24:23.161Z,100914.66
2022-11-06T19:27:00.756Z,100918.25
2022-11-06T19:29:28.606Z,100903.66
2022-11-06T19:34:43.695Z,100917.22
2022-11-06T19:37:11.201Z,100909.56
2022-11-06T19:39:42.569Z,100916.72
2022-11-06T19:42:11.781Z,100918.56
2022-11-06T19:44:39.317Z,100923.03
2022-11-06T19:47:09.756Z,100918.94
2022-11-06T19:49:37.261Z,100930.25
2022-11-06T19:52:42.785Z,100920.88
2022-11-06T19:55:24.703Z,100914.13
2022-11-06T19:57:45.082Z,100924.88
2022-11-06T20:00:14.457Z,100916.41
2022-11-06T20:02:45.115Z,100917.34
2022-11-06T20:05:12.794Z,100911.53
2022-11-06T20:07:42.954Z,100910.94
2022-11-06T20:10:12.230Z,100909.28
2022-11-06T20:12:39.895Z,100905.16
2022-11-06T20:15:08.210Z,100907.03
2022-11-06T20:17:37.318Z,100908.78
2022-11-06T20:20:05.830Z,100908.09
2022-11-06T20:22:35.386Z,100911.72
2022-11-06T20:25:03.054Z,100901.41
2022-11-06T20:27:32.500Z,100910.19
2022-11-06T20:30:00.174Z,100905.19
2022-11-06T20:32:27.901Z,100905.34
2022-11-06T20:34:55.702Z,100902.84
2022-11-06T20:37:23.682Z,100908.88
2022-11-06T20:39:52.086Z,100903.00
2022-11-06T20:42:20.180Z,100892.69
2022-11-06T20:44:50.140Z,100890.16
2022-11-06T20:47:18.533Z,100897.06
2022-11-06T20:49:46.782Z,100898.88
2022-11-06T20:52:15.597Z,100885.94
2022-11-06T20:54:47.519Z,100887.72
2022-11-06T20:57:15.825Z,100879.09
2022-11-06T20:59:44.093Z,100878.34
2022-11-06T21:02:14.596Z,100858.53
2022-11-06T21:04:43.004Z,100863.06
2022-11-06T21:07:12.730Z,100850.06
2022-11-06T21:09:40.697Z,100837.16
2022-11-06T21:12:09.202Z,100837.16
2022-11-06T21:14:39.349Z,100834.63
2022-11-06T21:17:08.710Z,100833.03
2022-11-06T21:19:39.160Z,100835.53
2022-11-06T21:25:04.914Z,100819.13
2022-11-06T21:27:32.959Z,100820.97
2022-11-06T21:30:08.790Z,100822.81
2022-11-06T21:32:37.839Z,100813.34
2022-11-06T21:35:17.730Z,100817.72
2022-11-06T21:37:45.399Z,100811.66
2022-11-06T21:40:17.172Z,100803.84
2022-11-06T21:42:46.309Z,100814.41
2022-11-06T21:45:15.904Z,100802.34
2022-11-06T21:47:43.729Z,100805.88
2022-11-06T21:50:12.900Z,100799.09
2022-11-06T21:52:58.013Z,100790.44
2022-11-06T21:55:43.509Z,100796.50
2022-11-06T21:58:11.108Z,100800.91
2022-11-06T22:00:39.889Z,100787.91
2022-11-06T22:03:08.946Z,100790.53
2022-11-06T22:05:37.801Z,100785.31
2022-11-06T22:08:05.894Z,100788.94
2022-11-06T22:10:36.174Z,100783.81
2022-11-06T22:13:04.409Z,100789.94
2022-11-06T22:15:38.599Z,100783.81
2022-11-06T22:18:06.272Z,100791.72
2022-11-06T22:20:36.546Z,100779.63
2022-11-06T22:23:05.700Z,100789.28
2022-11-06T22:25:33.456Z,100786.69
2022-11-06T22:28:03.617Z,100773.00
2022-11-06T22:30:34.377Z,100777.31
2022-11-06T22:33:04.016Z,100779.97
2022-11-06T22:35:32.781Z,100781.72
2022-11-06T22:38:00.604Z,100782.66
2022-11-06T22:40:30.868Z,100768.88
2022-11-06T22:42:58.556Z,100782.75
2022-11-06T22:45:26.192Z,100780.22
2022-11-06T22:47:54.759Z,100769.75
2022-11-06T22:50:23.261Z,100770.41
2022-11-06T22:52:52.133Z,100771.25
2022-11-06T22:55:20.367Z,100776.44
2022-11-06T22:57:53.803Z,100768.72
2022-11-06T23:00:23.451Z,100773.94
2022-11-06T23:02:52.198Z,100767.00
2022-11-06T23:05:19.771Z,100769.59
2022-11-06T23:07:47.630Z,100767.81
2022-11-06T23:10:15.762Z,100775.53
2022-11-06T23:12:43.249Z,100770.34
2022-11-06T23:15:13.765Z,100773.75
2022-11-06T23:17:41.497Z,100771.06
2022-11-06T23:20:10.250Z,100762.47
2022-11-06T23:22:38.163Z,100761.50
2022-11-06T23:25:07.308Z,100764.97
2022-11-06T23:27:37.394Z,100776.94
2022-11-06T23:30:06.644Z,100769.06
2022-11-06T23:32:38.350Z,100782.91
2022-11-06T23:35:11.713Z,100766.53
2022-11-06T23:37:43.222Z,100766.72
2022-11-06T23:40:13.108Z,100773.75
2022-11-06T23:42:47.616Z,100760.84
2022-11-06T23:45:33.009Z,100757.34
2022-11-06T23:48:08.561Z,100763.44
2022-11-06T23:50:36.551Z,100747.03
2022-11-06T23:53:04.649Z,100753.91
2022-11-06T23:55:32.146Z,100742.56
2022-11-06T23:57:59.869Z,100758.09
